sensor_id;sensor_type;location;lat;lon;timestamp;pressure;altitude;pressure_sealevel;temperature;humidity
20971;BME280;10644;48.834;10.088;2024-02-04T00:00:46;97696.81;;;10.10;66.68
20971;BME280;10644;48.834;10.088;2024-02-04T00:03:13;97703.59;;;10.11;66.56
20971;BME280;10644;48.834;10.088;2024-02-04T00:05:43;97683.41;;;10.02;67.04
20971;BME280;10644;48.834;10.088;2024-02-04T00:08:11;97683.41;;;10.02;67.38
20971;BME280;10644;48.834;10.088;2024-02-04T00:10:38;97672.56;;;9.96;67.49
20971;BME280;10644;48.834;10.088;2024-02-04T00:13:06;97665.75;;;9.95;67.48
20971;BME280;10644;48.834;10.088;2024-02-04T00:15:31;97656.00;;;9.81;68.67
20971;BME280;10644;48.834;10.088;2024-02-04T00:17:56;97673.84;;;9.84;68.74
20971;BME280;10644;48.834;10.088;2024-02-04T00:20:22;97669.00;;;10.00;67.87
20971;BME280;10644;48.834;10.088;2024-02-04T00:22:49;97664.50;;;9.83;68.76
20971;BME280;10644;48.834;10.088;2024-02-04T00:25:14;97664.09;;;9.94;68.47
20971;BME280;10644;48.834;10.088;2024-02-04T00:27:40;97655.75;;;10.13;67.45
20971;BME280;10644;48.834;10.088;2024-02-04T00:30:06;97639.09;;;10.25;67.11
20971;BME280;10644;48.834;10.088;2024-02-04T00:32:31;97635.38;;;10.10;67.88
20971;BME280;10644;48.834;10.088;2024-02-04T00:34:56;97627.03;;;10.05;68.10
20971;BME280;10644;48.834;10.088;2024-02-04T00:37:22;97622.22;;;9.96;68.73
20971;BME280;10644;48.834;10.088;2024-02-04T00:39:47;97622.66;;;10.09;67.88
20971;BME280;10644;48.834;10.088;2024-02-04T00:42:13;97617.94;;;9.97;69.01
20971;BME280;10644;48.834;10.088;2024-02-04T00:44:38;97614.75;;;9.90;69.18
20971;BME280;10644;48.834;10.088;2024-02-04T00:47:11;97611.75;;;10.02;68.52
20971;BME280;10644;48.834;10.088;2024-02-04T00:49:38;97617.69;;;10.04;68.96
20971;BME280;10644;48.834;10.088;2024-02-04T00:52:04;97635.69;;;10.01;69.08
20971;BME280;10644;48.834;10.088;2024-02-04T00:54:29;97640.63;;;9.83;69.87
20971;BME280;10644;48.834;10.088;2024-02-04T00:56:57;97650.97;;;9.80;69.79
20971;BME280;10644;48.834;10.088;2024-02-04T00:59:23;97655.41;;;9.75;70.08
20971;BME280;10644;48.834;10.088;2024-02-04T01:01:48;97663.50;;;9.87;69.82
20971;BME280;10644;48.834;10.088;2024-02-04T01:04:13;97660.72;;;9.93;69.43
20971;BME280;10644;48.834;10.088;2024-02-04T01:06:39;97659.19;;;10.12;69.29
20971;BME280;10644;48.834;10.088;2024-02-04T01:09:04;97658.56;;;10.06;69.26
20971;BME280;10644;48.834;10.088;2024-02-04T01:11:29;97667.38;;;9.97;69.35
20971;BME280;10644;48.834;10.088;2024-02-04T01:13:55;97661.13;;;9.81;70.42
20971;BME280;10644;48.834;10.088;2024-02-04T01:16:20;97651.66;;;9.60;71.45
20971;BME280;10644;48.834;10.088;2024-02-04T01:18:45;97647.63;;;9.78;70.09
20971;BME280;10644;48.834;10.088;2024-02-04T01:21:13;97648.41;;;9.80;70.50
20971;BME280;10644;48.834;10.088;2024-02-04T01:23:44;97637.88;;;9.64;70.95
20971;BME280;10644;48.834;10.088;2024-02-04T01:26:09;97642.69;;;9.96;69.92
20971;BME280;10644;48.834;10.088;2024-02-04T01:28:37;97642.91;;;9.90;69.83
20971;BME280;10644;48.834;10.088;2024-02-04T01:31:03;97641.56;;;9.80;70.05
20971;BME280;10644;48.834;10.088;2024-02-04T01:33:30;97649.81;;;9.88;70.15
20971;BME280;10644;48.834;10.088;2024-02-04T01:36:00;97644.34;;;9.74;70.18
20971;BME280;10644;48.834;10.088;2024-02-04T01:38:28;97641.03;;;9.95;69.27
20971;BME280;10644;48.834;10.088;2024-02-04T01:40:53;97627.03;;;10.05;68.86
20971;BME280;10644;48.834;10.088;2024-02-04T01:43:19;97625.16;;;10.10;68.35
20971;BME280;10644;48.834;10.088;2024-02-04T01:45:47;97623.47;;;10.09;68.05
20971;BME280;10644;48.834;10.088;2024-02-04T01:48:12;97631.31;;;10.05;67.85
20971;BME280;10644;48.834;10.088;2024-02-04T01:50:40;97616.88;;;10.02;67.75
20971;BME280;10644;48.834;10.088;2024-02-04T01:53:06;97626.97;;;10.07;67.60
20971;BME280;10644;48.834;10.088;2024-02-04T01:55:31;97604.81;;;10.06;67.51
20971;BME280;10644;48.834;10.088;2024-02-04T01:57:57;97614.78;;;10.13;67.08
20971;BME280;10644;48.834;10.088;2024-02-04T02:00:22;97612.88;;;10.18;67.10
20971;BME280;10644;48.834;10.088;2024-02-04T02:02:48;97606.16;;;10.16;67.23
20971;BME280;10644;48.834;10.088;2024-02-04T02:05:14;97602.97;;;10.09;66.87
20971;BME280;10644;48.834;10.088;2024-02-04T02:07:40;97608.88;;;9.88;67.52
20971;BME280;10644;48.834;10.088;2024-02-04T02:10:06;97616.91;;;9.78;68.03
20971;BME280;10644;48.834;10.088;2024-02-04T02:12:58;97609.19;;;9.79;68.52
20971;BME280;10644;48.834;10.088;2024-02-04T02:15:34;97604.56;;;9.89;68.28
20971;BME280;10644;48.834;10.088;2024-02-04T02:18:10;97610.03;;;10.04;67.52
20971;BME280;10644;48.834;10.088;2024-02-04T02:23:34;97615.16;;;10.04;66.99
20971;BME280;10644;48.834;10.088;2024-02-04T02:26:00;97624.25;;;10.11;66.67
20971;BME280;10644;48.834;10.088;2024-02-04T02:28:25;97631.47;;;10.23;66.48
20971;BME280;10644;48.834;10.088;2024-02-04T02:30:51;97624.00;;;10.40;65.66
20971;BME280;10644;48.834;10.088;2024-02-04T02:33:16;97617.44;;;10.33;65.96
20971;BME280;10644;48.834;10.088;2024-02-04T02:35:43;97608.31;;;10.26;65.66
20971;BME280;10644;48.834;10.088;2024-02-04T02:38:46;97614.22;;;10.28;65.44
20971;BME280;10644;48.834;10.088;2024-02-04T02:41:09;97618.00;;;10.18;65.75
20971;BME280;10644;48.834;10.088;2024-02-04T02:43:39;97618.00;;;10.18;65.84
20971;BME280;10644;48.834;10.088;2024-02-04T02:46:07;97624.06;;;10.16;65.87
20971;BME280;10644;48.834;10.088;2024-02-04T02:48:35;97616.44;;;10.14;65.40
20971;BME280;10644;48.834;10.088;2024-02-04T02:51:00;97610.56;;;10.12;65.85
20971;BME280;10644;48.834;10.088;2024-02-04T02:53:26;97604.78;;;10.07;66.11
20971;BME280;10644;48.834;10.088;2024-02-04T02:55:53;97598.38;;;10.19;65.23
20971;BME280;10644;48.834;10.088;2024-02-04T02:58:19;97608.50;;;10.43;65.23
20971;BME280;10644;48.834;10.088;2024-02-04T03:00:44;97610.41;;;10.38;64.71
20971;BME280;10644;48.834;10.088;2024-02-04T03:03:10;97611.38;;;10.36;64.87
20971;BME280;10644;48.834;10.088;2024-02-04T03:05:36;97604.78;;;10.29;64.71
20971;BME280;10644;48.834;10.088;2024-02-04T03:08:02;97605.25;;;10.17;65.60
20971;BME280;10644;48.834;10.088;2024-02-04T03:10:28;97607.53;;;10.24;65.44
20971;BME280;10644;48.834;10.088;2024-02-04T03:12:53;97607.09;;;10.13;65.71
20971;BME280;10644;48.834;10.088;2024-02-04T03:15:18;97606.34;;;10.11;65.73
20971;BME280;10644;48.834;10.088;2024-02-04T03:17:44;97614.91;;;10.10;65.42
20971;BME280;10644;48.834;10.088;2024-02-04T03:20:10;97611.47;;;10.11;65.32
20971;BME280;10644;48.834;10.088;2024-02-04T03:22:35;97611.47;;;10.11;65.62
20971;BME280;10644;48.834;10.088;2024-02-04T03:25:03;97616.13;;;10.23;65.47
20971;BME280;10644;48.834;10.088;2024-02-04T03:27:29;97614.69;;;10.16;65.33
20971;BME280;10644;48.834;10.088;2024-02-04T03:29:54;97618.72;;;10.22;65.40
20971;BME280;10644;48.834;10.088;2024-02-04T03:32:19;97616.34;;;10.17;65.18
20971;BME280;10644;48.834;10.088;2024-02-04T03:34:45;97605.97;;;10.20;65.46
20971;BME280;10644;48.834;10.088;2024-02-04T03:37:13;97603.16;;;10.05;65.89
20971;BME280;10644;48.834;10.088;2024-02-04T03:39:40;97606.75;;;9.99;66.18
20971;BME280;10644;48.834;10.088;2024-02-04T03:42:06;97599.13;;;9.98;66.40
20971;BME280;10644;48.834;10.088;2024-02-04T03:44:31;97593.75;;;9.82;67.41
20971;BME280;10644;48.834;10.088;2024-02-04T03:46:56;97589.84;;;9.95;66.69
20971;BME280;10644;48.834;10.088;2024-02-04T03:49:22;97601.66;;;9.99;67.12
20971;BME280;10644;48.834;10.088;2024-02-04T03:51:49;97600.75;;;10.00;66.81
20971;BME280;10644;48.834;10.088;2024-02-04T03:54:17;97603.09;;;10.06;66.37
20971;BME280;10644;48.834;10.088;2024-02-04T03:56:44;97605.66;;;10.06;66.43
20971;BME280;10644;48.834;10.088;2024-02-04T03:59:09;97608.88;;;9.88;67.38
20971;BME280;10644;48.834;10.088;2024-02-04T04:01:36;97619.28;;;10.07;67.23
20971;BME280;10644;48.834;10.088;2024-02-04T04:04:01;97611.97;;;9.96;67.01
20971;BME280;10644;48.834;10.088;2024-02-04T04:06:27;97624.53;;;10.04;66.74
20971;BME280;10644;48.834;10.088;2024-02-04T04:08:52;97610.03;;;10.04;66.60
20971;BME280;10644;48.834;10.088;2024-02-04T04:11:17;97606.72;;;10.24;66.26
20971;BME280;10644;48.834;10.088;2024-02-04T04:13:45;97613.56;;;10.23;66.00
20971;BME280;10644;48.834;10.088;2024-02-04T04:16:11;97621.84;;;10.30;66.35
20971;BME280;10644;48.834;10.088;2024-02-04T04:18:36;97620.34;;;10.24;65.91
20971;BME280;10644;48.834;10.088;2024-02-04T04:21:04;97618.91;;;10.17;66.40
20971;BME280;10644;48.834;10.088;2024-02-04T04:23:29;97617.34;;;10.13;66.05
20971;BME280;10644;48.834;10.088;2024-02-04T04:25:54;97614.09;;;10.31;66.10
20971;BME280;10644;48.834;10.088;2024-02-04T04:28:19;97594.94;;;10.41;65.13
20971;BME280;10644;48.834;10.088;2024-02-04T04:30:45;97606.34;;;10.33;65.35
20971;BME280;10644;48.834;10.088;2024-02-04T04:33:10;97608.09;;;10.09;66.35
20971;BME280;10644;48.834;10.088;2024-02-04T04:35:37;97613.34;;;10.06;66.47
20971;BME280;10644;48.834;10.088;2024-02-04T04:38:02;97613.50;;;10.02;66.40
20971;BME280;10644;48.834;10.088;2024-02-04T04:40:30;97619.28;;;10.07;66.63
20971;BME280;10644;48.834;10.088;2024-02-04T04:42:56;97631.00;;;9.89;67.02
20971;BME280;10644;48.834;10.088;2024-02-04T04:45:22;97629.94;;;9.95;66.72
20971;BME280;10644;48.834;10.088;2024-02-04T04:47:47;97642.91;;;9.90;67.17
20971;BME280;10644;48.834;10.088;2024-02-04T04:50:12;97633.53;;;9.91;66.92
20971;BME280;10644;48.834;10.088;2024-02-04T04:52:38;97618.53;;;10.03;66.44
20971;BME280;10644;48.834;10.088;2024-02-04T04:55:05;97607.81;;;9.94;66.56
20971;BME280;10644;48.834;10.088;2024-02-04T04:57:33;97608.84;;;10.13;65.97
20971;BME280;10644;48.834;10.088;2024-02-04T04:59:58;97603.50;;;10.19;65.77
20971;BME280;10644;48.834;10.088;2024-02-04T05:02:28;97594.72;;;10.24;65.25
20971;BME280;10644;48.834;10.088;2024-02-04T05:04:54;97590.56;;;10.43;65.22
20971;BME280;10644;48.834;10.088;2024-02-04T05:07:19;97602.56;;;10.43;65.21
20971;BME280;10644;48.834;10.088;2024-02-04T05:09:45;97600.63;;;10.26;65.17
20971;BME280;10644;48.834;10.088;2024-02-04T05:12:11;97605.88;;;10.23;65.57
20971;BME280;10644;48.834;10.088;2024-02-04T05:14:38;97604.22;;;10.22;65.21
20971;BME280;10644;48.834;10.088;2024-02-04T05:17:06;97610.38;;;10.17;65.69
20971;BME280;10644;48.834;10.088;2024-02-04T05:19:31;97607.72;;;10.20;65.94
20971;BME280;10644;48.834;10.088;2024-02-04T05:21:57;97607.19;;;10.33;65.57
20971;BME280;10644;48.834;10.088;2024-02-04T05:24:22;97611.94;;;10.42;65.23
20971;BME280;10644;48.834;10.088;2024-02-04T05:26:50;97607.06;;;10.36;65.23
20971;BME280;10644;48.834;10.088;2024-02-04T05:29:15;97609.66;;;10.13;65.46
20971;BME280;10644;48.834;10.088;2024-02-04T05:31:41;97604.69;;;10.10;65.61
20971;BME280;10644;48.834;10.088;2024-02-04T05:34:07;97609.59;;;9.92;66.71
20971;BME280;10644;48.834;10.088;2024-02-04T05:36:35;97614.31;;;10.02;66.73
20971;BME280;10644;48.834;10.088;2024-02-04T05:39:14;97599.66;;;10.07;66.35
20971;BME280;10644;48.834;10.088;2024-02-04T05:41:41;97615.44;;;9.95;66.69
20971;BME280;10644;48.834;10.088;2024-02-04T05:44:06;97610.19;;;9.98;66.43
20971;BME280;10644;48.834;10.088;2024-02-04T05:46:36;97603.41;;;9.97;66.41
20971;BME280;10644;48.834;10.088;2024-02-04T05:49:04;97611.56;;;10.08;66.82
20971;BME280;10644;48.834;10.088;2024-02-04T05:51:38;97617.75;;;9.78;68.09
20971;BME280;10644;48.834;10.088;2024-02-04T05:54:04;97618.44;;;9.83;68.10
20971;BME280;10644;48.834;10.088;2024-02-04T05:56:29;97624.31;;;9.85;68.10
20971;BME280;10644;48.834;10.088;2024-02-04T05:58:56;97635.00;;;9.73;68.49
20971;BME280;10644;48.834;10.088;2024-02-04T06:01:21;97622.88;;;9.78;67.99
20971;BME280;10644;48.834;10.088;2024-02-04T06:03:46;97628.72;;;9.82;68.41
20971;BME280;10644;48.834;10.088;2024-02-04T06:06:18;97640.34;;;9.90;68.28
20971;BME280;10644;48.834;10.088;2024-02-04T06:08:45;97637.47;;;9.76;68.40
20971;BME280;10644;48.834;10.088;2024-02-04T06:11:12;97621.53;;;9.68;69.36
20971;BME280;10644;48.834;10.088;2024-02-04T06:13:42;97615.22;;;9.78;69.04
20971;BME280;10644;48.834;10.088;2024-02-04T06:16:08;97612.09;;;9.93;68.15
20971;BME280;10644;48.834;10.088;2024-02-04T06:18:37;97604.91;;;10.04;68.52
20971;BME280;10644;48.834;10.088;2024-02-04T06:21:05;97608.53;;;9.97;68.79
20971;BME280;10644;48.834;10.088;2024-02-04T06:23:31;97606.22;;;10.14;67.59
20971;BME280;10644;48.834;10.088;2024-02-04T06:25:57;97601.50;;;10.02;68.32
20971;BME280;10644;48.834;10.088;2024-02-04T06:28:25;97609.00;;;10.08;67.68
20971;BME280;10644;48.834;10.088;2024-02-04T06:30:50;97613.41;;;10.03;68.11
20971;BME280;10644;48.834;10.088;2024-02-04T06:33:16;97622.66;;;9.84;68.28
20971;BME280;10644;48.834;10.088;2024-02-04T06:35:43;97617.22;;;9.93;68.23
20971;BME280;10644;48.834;10.088;2024-02-04T06:38:09;97615.53;;;9.92;68.14
20971;BME280;10644;48.834;10.088;2024-02-04T06:40:34;97619.78;;;9.93;68.05
20971;BME280;10644;48.834;10.088;2024-02-04T06:42:59;97618.34;;;10.09;68.29
20971;BME280;10644;48.834;10.088;2024-02-04T06:45:25;97616.56;;;10.11;67.37
20971;BME280;10644;48.834;10.088;2024-02-04T06:47:50;97625.44;;;10.01;67.24
20971;BME280;10644;48.834;10.088;2024-02-04T06:50:15;97619.41;;;10.04;67.44
20971;BME280;10644;48.834;10.088;2024-02-04T06:52:43;97637.28;;;10.05;67.35
20971;BME280;10644;48.834;10.088;2024-02-04T06:55:10;97638.94;;;10.06;66.75
20971;BME280;10644;48.834;10.088;2024-02-04T06:57:35;97648.72;;;10.18;66.90
20971;BME280;10644;48.834;10.088;2024-02-04T07:00:01;97644.13;;;10.03;66.94
20971;BME280;10644;48.834;10.088;2024-02-04T07:02:26;97645.25;;;9.96;67.66
20971;BME280;10644;48.834;10.088;2024-02-04T07:04:52;97646.22;;;9.92;67.72
20971;BME280;10644;48.834;10.088;2024-02-04T07:07:18;97643.34;;;10.01;67.21
20971;BME280;10644;48.834;10.088;2024-02-04T07:09:43;97629.72;;;10.01;67.50
20971;BME280;10644;48.834;10.088;2024-02-04T07:12:08;97639.00;;;10.03;67.80
20971;BME280;10644;48.834;10.088;2024-02-04T07:14:34;97644.81;;;10.08;67.21
20971;BME280;10644;48.834;10.088;2024-02-04T07:16:59;97635.63;;;10.04;67.39
20971;BME280;10644;48.834;10.088;2024-02-04T07:19:24;97631.50;;;9.99;67.43
20971;BME280;10644;48.834;10.088;2024-02-04T07:21:50;97629.84;;;9.98;67.85
20971;BME280;10644;48.834;10.088;2024-02-04T07:24:15;97632.66;;;9.90;68.33
20971;BME280;10644;48.834;10.088;2024-02-04T07:26:40;97631.09;;;9.86;68.28
20971;BME280;10644;48.834;10.088;2024-02-04T07:29:08;97637.78;;;9.90;68.41
20971;BME280;10644;48.834;10.088;2024-02-04T07:31:33;97627.75;;;10.09;67.59
20971;BME280;10644;48.834;10.088;2024-02-04T07:34:02;97625.19;;;10.09;67.36
20971;BME280;10644;48.834;10.088;2024-02-04T07:36:28;97619.59;;;9.98;67.65
20971;BME280;10644;48.834;10.088;2024-02-04T07:38:53;97613.63;;;9.97;67.46
20971;BME280;10644;48.834;10.088;2024-02-04T07:41:18;97624.00;;;9.94;67.93
20971;BME280;10644;48.834;10.088;2024-02-04T07:43:44;97628.00;;;10.01;67.42
20971;BME280;10644;48.834;10.088;2024-02-04T07:46:10;97628.91;;;10.00;67.49
20971;BME280;10644;48.834;10.088;2024-02-04T07:48:35;97618.09;;;10.15;66.97
20971;BME280;10644;48.834;10.088;2024-02-04T07:51:01;97626.44;;;10.20;66.63
20971;BME280;10644;48.834;10.088;2024-02-04T07:53:31;97619.56;;;9.99;67.61
20971;BME280;10644;48.834;10.088;2024-02-04T07:55:56;97630.66;;;9.98;67.98
20971;BME280;10644;48.834;10.088;2024-02-04T07:58:22;97613.09;;;9.89;67.83
20971;BME280;10644;48.834;10.088;2024-02-04T08:00:47;97605.41;;;9.89;68.14
20971;BME280;10644;48.834;10.088;2024-02-04T08:03:15;97592.50;;;9.92;68.05
20971;BME280;10644;48.834;10.088;2024-02-04T08:05:40;97603.75;;;9.88;67.99
20971;BME280;10644;48.834;10.088;2024-02-04T08:08:05;97603.41;;;9.97;67.97
20971;BME280;10644;48.834;10.088;2024-02-04T08:10:31;97611.00;;;10.23;67.05
20971;BME280;10644;48.834;10.088;2024-02-04T08:13:01;97607.38;;;10.06;67.67
20971;BME280;10644;48.834;10.088;2024-02-04T08:15:26;97597.09;;;10.07;67.93
20971;BME280;10644;48.834;10.088;2024-02-04T08:17:52;97604.22;;;10.22;67.40
20971;BME280;10644;48.834;10.088;2024-02-04T08:20:22;97598.16;;;10.25;67.04
20971;BME280;10644;48.834;10.088;2024-02-04T08:22:51;97599.31;;;10.16;67.26
20971;BME280;10644;48.834;10.088;2024-02-04T08:25:19;97600.09;;;10.18;67.47
20971;BME280;10644;48.834;10.088;2024-02-04T08:27:46;97599.84;;;10.24;66.83
20971;BME280;10644;48.834;10.088;2024-02-04T08:30:12;97612.03;;;10.18;67.05
20971;BME280;10644;48.834;10.088;2024-02-04T08:32:41;97620.03;;;10.10;66.85
20971;BME280;10644;48.834;10.088;2024-02-04T08:35:06;97617.00;;;10.22;66.69
20971;BME280;10644;48.834;10.088;2024-02-04T08:37:32;97619.34;;;10.28;66.49
20971;BME280;10644;48.834;10.088;2024-02-04T08:39:58;97616.63;;;10.10;66.51
20971;BME280;10644;48.834;10.088;2024-02-04T08:42:24;97622.13;;;9.99;66.83
20971;BME280;10644;48.834;10.088;2024-02-04T08:44:49;97615.41;;;10.20;66.60
20971;BME280;10644;48.834;10.088;2024-02-04T08:47:14;97608.97;;;10.31;66.41
20971;BME280;10644;48.834;10.088;2024-02-04T08:49:42;97608.16;;;10.52;65.30
20971;BME280;10644;48.834;10.088;2024-02-04T08:52:07;97607.91;;;10.58;64.81
20971;BME280;10644;48.834;10.088;2024-02-04T08:54:33;97603.16;;;10.49;64.72
20971;BME280;10644;48.834;10.088;2024-02-04T08:57:00;97599.81;;;10.47;65.02
20971;BME280;10644;48.834;10.088;2024-02-04T08:59:28;97608.38;;;10.46;64.99
20971;BME280;10644;48.834;10.088;2024-02-04T09:01:56;97601.41;;;10.28;65.74
20971;BME280;10644;48.834;10.088;2024-02-04T09:04:21;97590.38;;;10.26;65.76
20971;BME280;10644;48.834;10.088;2024-02-04T09:06:49;97595.06;;;10.38;65.52
20971;BME280;10644;48.834;10.088;2024-02-04T09:09:14;97596.72;;;10.39;65.47
20971;BME280;10644;48.834;10.088;2024-02-04T09:11:42;97594.31;;;10.35;65.54
20971;BME280;10644;48.834;10.088;2024-02-04T09:14:07;97595.16;;;10.57;64.88
20971;BME280;10644;48.834;10.088;2024-02-04T09:16:38;97607.19;;;10.55;64.75
20971;BME280;10644;48.834;10.088;2024-02-04T09:19:04;97608.75;;;10.59;65.13
20971;BME280;10644;48.834;10.088;2024-02-04T09:21:32;97594.28;;;10.58;64.83
20971;BME280;10644;48.834;10.088;2024-02-04T09:23:59;97602.41;;;10.46;65.33
20971;BME280;10644;48.834;10.088;2024-02-04T09:26:27;97594.63;;;10.49;65.31
20971;BME280;10644;48.834;10.088;2024-02-04T09:28:55;97601.94;;;10.36;65.24
20971;BME280;10644;48.834;10.088;2024-02-04T09:31:23;97600.03;;;10.41;65.35
20971;BME280;10644;48.834;10.088;2024-02-04T09:33:48;97607.16;;;10.56;64.99
20971;BME280;10644;48.834;10.088;2024-02-04T09:36:14;97604.63;;;10.55;64.98
20971;BME280;10644;48.834;10.088;2024-02-04T09:38:40;97599.81;;;10.47;64.81
20971;BME280;10644;48.834;10.088;2024-02-04T09:41:05;97612.38;;;10.53;65.36
20971;BME280;10644;48.834;10.088;2024-02-04T09:43:35;97624.84;;;10.62;64.68
20971;BME280;10644;48.834;10.088;2024-02-04T09:46:02;97611.38;;;10.57;65.47
20971;BME280;10644;48.834;10.088;2024-02-04T09:48:32;97611.22;;;10.60;65.32
20971;BME280;10644;48.834;10.088;2024-02-04T09:51:00;97623.53;;;10.52;65.58
20971;BME280;10644;48.834;10.088;2024-02-04T09:53:32;97615.78;;;10.32;66.23
20971;BME280;10644;48.834;10.088;2024-02-04T09:56:02;97610.47;;;10.58;65.30
20971;BME280;10644;48.834;10.088;2024-02-04T09:58:29;97606.06;;;10.62;65.60
20971;BME280;10644;48.834;10.088;2024-02-04T10:00:54;97604.22;;;10.65;64.95
20971;BME280;10644;48.834;10.088;2024-02-04T10:03:20;97607.91;;;10.58;65.80
20971;BME280;10644;48.834;10.088;2024-02-04T10:05:48;97589.31;;;10.53;65.70
20971;BME280;10644;48.834;10.088;2024-02-04T10:08:16;97596.28;;;10.71;65.75
20971;BME280;10644;48.834;10.088;2024-02-04T10:10:41;97588.94;;;10.84;65.17
20971;BME280;10644;48.834;10.088;2024-02-04T10:13:10;97612.50;;;11.13;65.15
20971;BME280;10644;48.834;10.088;2024-02-04T10:15:38;97602.94;;;11.17;64.84
20971;BME280;10644;48.834;10.088;2024-02-04T10:18:04;97621.53;;;11.42;64.30
20971;BME280;10644;48.834;10.088;2024-02-04T10:20:35;97606.94;;;11.44;64.31
20971;BME280;10644;48.834;10.088;2024-02-04T10:23:01;97603.13;;;11.32;63.90
20971;BME280;10644;48.834;10.088;2024-02-04T10:25:27;97602.81;;;11.40;64.32
20971;BME280;10644;48.834;10.088;2024-02-04T10:27:54;97606.09;;;11.43;63.43
20971;BME280;10644;48.834;10.088;2024-02-04T10:30:20;97606.59;;;11.31;64.05
20971;BME280;10644;48.834;10.088;2024-02-04T10:32:52;97594.94;;;11.24;63.90
20971;BME280;10644;48.834;10.088;2024-02-04T10:35:20;97552.78;;;11.11;64.25
20971;BME280;10644;48.834;10.088;2024-02-04T10:37:55;97564.66;;;11.32;64.63
20971;BME280;10644;48.834;10.088;2024-02-04T10:40:20;97543.84;;;11.58;64.42
20971;BME280;10644;48.834;10.088;2024-02-04T10:42:48;97545.22;;;11.85;62.78
20971;BME280;10644;48.834;10.088;2024-02-04T10:45:17;97536.13;;;11.78;63.02
20971;BME280;10644;48.834;10.088;2024-02-04T10:47:44;97528.78;;;11.89;62.51
20971;BME280;10644;48.834;10.088;2024-02-04T10:50:15;97535.56;;;12.09;62.01
20971;BME280;10644;48.834;10.088;2024-02-04T10:52:46;97541.81;;;12.03;61.67
20971;BME280;10644;48.834;10.088;2024-02-04T10:55:11;97544.38;;;12.22;61.54
20971;BME280;10644;48.834;10.088;2024-02-04T10:57:40;97537.69;;;12.36;61.32
20971;BME280;10644;48.834;10.088;2024-02-04T11:00:06;97539.31;;;12.20;60.70
20971;BME280;10644;48.834;10.088;2024-02-04T11:02:40;97531.16;;;11.94;61.31
20971;BME280;10644;48.834;10.088;2024-02-04T11:05:10;97537.38;;;11.88;61.90
20971;BME280;10644;48.834;10.088;2024-02-04T11:07:38;97532.00;;;11.76;62.02
20971;BME280;10644;48.834;10.088;2024-02-04T11:10:06;97527.59;;;11.78;61.78
20971;BME280;10644;48.834;10.088;2024-02-04T11:12:33;97532.03;;;11.74;62.01
20971;BME280;10644;48.834;10.088;2024-02-04T11:15:03;97536.56;;;11.88;61.66
20971;BME280;10644;48.834;10.088;2024-02-04T11:25:52;97512.38;;;12.10;60.92
20971;BME280;10644;48.834;10.088;2024-02-04T11:28:21;97505.72;;;12.06;61.17
20971;BME280;10644;48.834;10.088;2024-02-04T11:30:47;97499.59;;;12.09;61.16
20971;BME280;10644;48.834;10.088;2024-02-04T11:33:18;97498.91;;;12.24;60.61
20971;BME280;10644;48.834;10.088;2024-02-04T11:35:47;97503.66;;;12.14;60.92
20971;BME280;10644;48.834;10.088;2024-02-04T11:38:17;97507.25;;;12.10;61.31
20971;BME280;10644;48.834;10.088;2024-02-04T11:40:43;97506.06;;;12.17;60.43
20971;BME280;10644;48.834;10.088;2024-02-04T11:43:12;97523.59;;;12.26;60.12
20971;BME280;10644;48.834;10.088;2024-02-04T11:45:40;97508.09;;;12.11;60.94
20971;BME280;10644;48.834;10.088;2024-02-04T11:48:11;97532.13;;;12.10;61.00
20971;BME280;10644;48.834;10.088;2024-02-04T11:50:40;97492.75;;;12.09;61.02
20971;BME280;10644;48.834;10.088;2024-02-04T11:53:07;97485.91;;;11.91;61.41
20971;BME280;10644;48.834;10.088;2024-02-04T11:55:39;97483.81;;;11.81;61.97
20971;BME280;10644;48.834;10.088;2024-02-04T11:58:08;97475.44;;;11.77;62.41
20971;BME280;10644;48.834;10.088;2024-02-04T12:00:35;97476.84;;;11.84;62.57
20971;BME280;10644;48.834;10.088;2024-02-04T12:03:03;97472.69;;;11.82;62.71
20971;BME280;10644;48.834;10.088;2024-02-04T12:05:34;97472.25;;;11.72;63.18
20971;BME280;10644;48.834;10.088;2024-02-04T12:08:04;97482.44;;;11.92;62.73
20971;BME280;10644;48.834;10.088;2024-02-04T12:10:31;97483.13;;;11.77;62.91
20971;BME280;10644;48.834;10.088;2024-02-04T12:13:02;97471.66;;;11.67;63.66
20971;BME280;10644;48.834;10.088;2024-02-04T12:15:28;97467.16;;;11.89;63.65
20971;BME280;10644;48.834;10.088;2024-02-04T12:17:53;97463.84;;;11.87;63.35
20971;BME280;10644;48.834;10.088;2024-02-04T12:20:19;97453.72;;;11.84;63.67
20971;BME280;10644;48.834;10.088;2024-02-04T12:22:46;97456.06;;;11.89;63.96
20971;BME280;10644;48.834;10.088;2024-02-04T12:25:14;97440.78;;;12.04;64.28
20971;BME280;10644;48.834;10.088;2024-02-04T12:27:39;97448.34;;;12.07;64.57
20971;BME280;10644;48.834;10.088;2024-02-04T12:30:05;97456.19;;;12.04;64.41
20971;BME280;10644;48.834;10.088;2024-02-04T12:32:32;97437.38;;;12.04;63.76
20971;BME280;10644;48.834;10.088;2024-02-04T12:34:57;97438.16;;;12.06;64.24
20971;BME280;10644;48.834;10.088;2024-02-04T12:37:22;97459.25;;;12.12;64.06
20971;BME280;10644;48.834;10.088;2024-02-04T12:39:48;97432.16;;;12.05;64.22
20971;BME280;10644;48.834;10.088;2024-02-04T12:42:17;97422.88;;;12.03;64.52
20971;BME280;10644;48.834;10.088;2024-02-04T12:44:47;97436.44;;;11.88;65.00
20971;BME280;10644;48.834;10.088;2024-02-04T12:47:13;97435.78;;;11.84;65.16
20971;BME280;10644;48.834;10.088;2024-02-04T12:49:39;97422.34;;;11.96;64.47
20971;BME280;10644;48.834;10.088;2024-02-04T12:52:06;97418.28;;;12.09;63.44
20971;BME280;10644;48.834;10.088;2024-02-04T12:54:40;97413.22;;;12.25;63.00
20971;BME280;10644;48.834;10.088;2024-02-04T12:57:06;97412.94;;;12.31;62.78
20971;BME280;10644;48.834;10.088;2024-02-04T12:59:33;97409.06;;;12.39;62.19
20971;BME280;10644;48.834;10.088;2024-02-04T13:02:04;97413.16;;;12.26;62.17